Houthem, Netherlands
Current Conditions -  °F | °C
As of 3:25 PM on Sunday 23 Nov 2014 (Local Time) from EHBK Reporting Station
Clear Clear  
Wind Chill: 61°   Ceiling: Unl
Heat Index: 61°   Visibility: 6mi
Dew Point: 52°   Wind: 7mph
Humidity: 72%   Direction: 170°S
Pressure: 29.94"   Gusts: NA
Location:  50.87°N, 5.79°E
Report Text: EHBK 231425Z AUTO 17006KT 9999 NCD 16/11 Q1014 NOSIG
Loading
Personal Weather Stations






























Interactive Weather Map New forecast layout! Learn more

10-Day Weather Forecast

Advertisements
Track Severe Weather on mobile